sensor_id;sensor_type;location;lat;lon;timestamp;P1;durP1;ratioP1;P2;durP2;ratioP2
33403;SDS011;19751;40.274;18.268;2023-12-20T00:00:34;49.25;;;29.38;;
33403;SDS011;19751;40.274;18.268;2023-12-20T00:03:02;45.45;;;28.98;;
33403;SDS011;19751;40.274;18.268;2023-12-20T00:05:28;44.42;;;27.50;;
33403;SDS011;19751;40.274;18.268;2023-12-20T00:07:53;49.05;;;28.98;;
33403;SDS011;19751;40.274;18.268;2023-12-20T00:10:19;41.67;;;29.33;;
33403;SDS011;19751;40.274;18.268;2023-12-20T00:12:45;44.00;;;28.85;;
33403;SDS011;19751;40.274;18.268;2023-12-20T00:15:10;41.25;;;27.00;;
33403;SDS011;19751;40.274;18.268;2023-12-20T00:17:36;40.88;;;25.58;;
33403;SDS011;19751;40.274;18.268;2023-12-20T00:20:01;36.85;;;24.63;;
33403;SDS011;19751;40.274;18.268;2023-12-20T00:22:27;41.67;;;25.23;;
33403;SDS011;19751;40.274;18.268;2023-12-20T00:24:53;42.25;;;26.25;;
33403;SDS011;19751;40.274;18.268;2023-12-20T00:27:18;40.10;;;26.52;;
33403;SDS011;19751;40.274;18.268;2023-12-20T00:29:44;40.00;;;24.73;;
33403;SDS011;19751;40.274;18.268;2023-12-20T00:32:12;42.47;;;25.08;;
33403;SDS011;19751;40.274;18.268;2023-12-20T00:34:38;33.28;;;24.20;;
33403;SDS011;19751;40.274;18.268;2023-12-20T00:37:04;37.15;;;23.23;;
33403;SDS011;19751;40.274;18.268;2023-12-20T00:39:29;37.65;;;22.58;;
33403;SDS011;19751;40.274;18.268;2023-12-20T00:41:55;36.13;;;24.52;;
33403;SDS011;19751;40.274;18.268;2023-12-20T00:44:20;37.83;;;23.73;;
33403;SDS011;19751;40.274;18.268;2023-12-20T00:46:46;33.38;;;22.05;;
33403;SDS011;19751;40.274;18.268;2023-12-20T00:49:11;33.05;;;21.98;;
33403;SDS011;19751;40.274;18.268;2023-12-20T00:51:37;38.20;;;24.83;;
33403;SDS011;19751;40.274;18.268;2023-12-20T00:54:02;35.20;;;23.08;;
33403;SDS011;19751;40.274;18.268;2023-12-20T00:56:28;40.15;;;22.40;;
33403;SDS011;19751;40.274;18.268;2023-12-20T00:58:53;36.83;;;22.35;;
33403;SDS011;19751;40.274;18.268;2023-12-20T01:01:19;35.65;;;21.85;;
33403;SDS011;19751;40.274;18.268;2023-12-20T01:03:44;34.53;;;21.98;;
33403;SDS011;19751;40.274;18.268;2023-12-20T01:06:10;36.25;;;22.65;;
33403;SDS011;19751;40.274;18.268;2023-12-20T01:08:35;33.97;;;23.95;;
33403;SDS011;19751;40.274;18.268;2023-12-20T01:11:05;36.97;;;22.48;;
33403;SDS011;19751;40.274;18.268;2023-12-20T01:13:31;33.13;;;21.75;;
33403;SDS011;19751;40.274;18.268;2023-12-20T01:15:56;38.85;;;21.92;;
33403;SDS011;19751;40.274;18.268;2023-12-20T01:18:22;30.33;;;20.35;;
33403;SDS011;19751;40.274;18.268;2023-12-20T01:20:47;33.47;;;22.13;;
33403;SDS011;19751;40.274;18.268;2023-12-20T01:23:13;29.42;;;20.80;;
33403;SDS011;19751;40.274;18.268;2023-12-20T01:25:39;29.13;;;20.65;;
33403;SDS011;19751;40.274;18.268;2023-12-20T01:28:04;30.83;;;20.40;;
33403;SDS011;19751;40.274;18.268;2023-12-20T01:30:30;30.45;;;19.27;;
33403;SDS011;19751;40.274;18.268;2023-12-20T01:32:55;28.13;;;19.00;;
33403;SDS011;19751;40.274;18.268;2023-12-20T01:35:21;31.48;;;18.25;;
33403;SDS011;19751;40.274;18.268;2023-12-20T01:37:46;26.33;;;18.75;;
33403;SDS011;19751;40.274;18.268;2023-12-20T01:40:12;29.45;;;20.15;;
33403;SDS011;19751;40.274;18.268;2023-12-20T01:42:37;28.13;;;18.25;;
33403;SDS011;19751;40.274;18.268;2023-12-20T01:45:03;28.25;;;19.05;;
33403;SDS011;19751;40.274;18.268;2023-12-20T01:47:29;26.85;;;18.73;;
33403;SDS011;19751;40.274;18.268;2023-12-20T01:49:55;29.88;;;19.40;;
33403;SDS011;19751;40.274;18.268;2023-12-20T01:52:22;26.80;;;19.08;;
33403;SDS011;19751;40.274;18.268;2023-12-20T01:54:48;24.45;;;18.40;;
33403;SDS011;19751;40.274;18.268;2023-12-20T01:57:14;26.33;;;19.48;;
33403;SDS011;19751;40.274;18.268;2023-12-20T01:59:40;24.77;;;17.08;;
33403;SDS011;19751;40.274;18.268;2023-12-20T02:02:06;26.27;;;18.55;;
33403;SDS011;19751;40.274;18.268;2023-12-20T02:04:33;23.17;;;18.48;;
33403;SDS011;19751;40.274;18.268;2023-12-20T02:06:59;28.48;;;18.92;;
33403;SDS011;19751;40.274;18.268;2023-12-20T02:09:24;23.05;;;16.60;;
33403;SDS011;19751;40.274;18.268;2023-12-20T02:11:50;24.50;;;17.38;;
33403;SDS011;19751;40.274;18.268;2023-12-20T02:14:15;26.92;;;18.25;;
33403;SDS011;19751;40.274;18.268;2023-12-20T02:16:41;23.38;;;18.52;;
33403;SDS011;19751;40.274;18.268;2023-12-20T02:19:09;22.88;;;16.20;;
33403;SDS011;19751;40.274;18.268;2023-12-20T02:21:39;26.80;;;17.33;;
33403;SDS011;19751;40.274;18.268;2023-12-20T02:24:04;24.35;;;17.25;;
33403;SDS011;19751;40.274;18.268;2023-12-20T02:26:31;25.65;;;17.35;;
33403;SDS011;19751;40.274;18.268;2023-12-20T02:28:58;22.25;;;16.00;;
33403;SDS011;19751;40.274;18.268;2023-12-20T02:31:24;23.00;;;16.50;;
33403;SDS011;19751;40.274;18.268;2023-12-20T02:33:50;27.13;;;16.65;;
33403;SDS011;19751;40.274;18.268;2023-12-20T02:36:15;23.48;;;16.30;;
33403;SDS011;19751;40.274;18.268;2023-12-20T02:38:41;28.55;;;18.25;;
33403;SDS011;19751;40.274;18.268;2023-12-20T02:41:06;25.30;;;19.17;;
33403;SDS011;19751;40.274;18.268;2023-12-20T02:43:32;25.42;;;18.83;;
33403;SDS011;19751;40.274;18.268;2023-12-20T02:45:57;22.02;;;17.95;;
33403;SDS011;19751;40.274;18.268;2023-12-20T02:48:23;23.15;;;17.45;;
33403;SDS011;19751;40.274;18.268;2023-12-20T02:50:48;23.88;;;17.13;;
33403;SDS011;19751;40.274;18.268;2023-12-20T02:53:14;26.90;;;17.58;;
33403;SDS011;19751;40.274;18.268;2023-12-20T02:55:40;24.25;;;16.67;;
33403;SDS011;19751;40.274;18.268;2023-12-20T02:58:05;23.50;;;16.70;;
33403;SDS011;19751;40.274;18.268;2023-12-20T03:00:31;24.15;;;16.20;;
33403;SDS011;19751;40.274;18.268;2023-12-20T03:02:56;26.17;;;17.92;;
33403;SDS011;19751;40.274;18.268;2023-12-20T03:05:22;21.75;;;16.50;;
33403;SDS011;19751;40.274;18.268;2023-12-20T03:07:47;24.55;;;15.55;;
33403;SDS011;19751;40.274;18.268;2023-12-20T03:10:13;26.38;;;16.20;;
33403;SDS011;19751;40.274;18.268;2023-12-20T03:12:38;24.20;;;15.73;;
33403;SDS011;19751;40.274;18.268;2023-12-20T03:15:04;21.63;;;14.65;;
33403;SDS011;19751;40.274;18.268;2023-12-20T03:17:30;20.10;;;14.90;;
33403;SDS011;19751;40.274;18.268;2023-12-20T03:19:56;21.60;;;14.18;;
33403;SDS011;19751;40.274;18.268;2023-12-20T03:22:21;19.98;;;14.45;;
33403;SDS011;19751;40.274;18.268;2023-12-20T03:24:47;19.88;;;14.02;;
33403;SDS011;19751;40.274;18.268;2023-12-20T03:27:13;23.17;;;15.52;;
33403;SDS011;19751;40.274;18.268;2023-12-20T03:29:38;25.13;;;16.90;;
33403;SDS011;19751;40.274;18.268;2023-12-20T03:32:04;23.42;;;16.63;;
33403;SDS011;19751;40.274;18.268;2023-12-20T03:34:29;24.77;;;16.25;;
33403;SDS011;19751;40.274;18.268;2023-12-20T03:36:55;24.08;;;16.90;;
33403;SDS011;19751;40.274;18.268;2023-12-20T03:39:20;24.48;;;16.58;;
33403;SDS011;19751;40.274;18.268;2023-12-20T03:41:46;24.08;;;16.10;;
33403;SDS011;19751;40.274;18.268;2023-12-20T03:44:11;23.30;;;16.02;;
33403;SDS011;19751;40.274;18.268;2023-12-20T03:46:37;22.00;;;14.57;;
33403;SDS011;19751;40.274;18.268;2023-12-20T03:49:02;22.20;;;15.45;;
33403;SDS011;19751;40.274;18.268;2023-12-20T03:51:27;31.27;;;17.25;;
33403;SDS011;19751;40.274;18.268;2023-12-20T03:53:53;23.40;;;15.02;;
33403;SDS011;19751;40.274;18.268;2023-12-20T03:56:18;20.35;;;14.23;;
33403;SDS011;19751;40.274;18.268;2023-12-20T03:58:44;22.92;;;15.18;;
33403;SDS011;19751;40.274;18.268;2023-12-20T04:01:10;22.83;;;15.85;;
33403;SDS011;19751;40.274;18.268;2023-12-20T04:03:38;20.73;;;14.07;;
33403;SDS011;19751;40.274;18.268;2023-12-20T04:06:05;21.83;;;14.55;;
33403;SDS011;19751;40.274;18.268;2023-12-20T04:08:31;25.90;;;15.77;;
33403;SDS011;19751;40.274;18.268;2023-12-20T04:10:56;21.55;;;14.55;;
33403;SDS011;19751;40.274;18.268;2023-12-20T04:13:22;22.73;;;14.07;;
33403;SDS011;19751;40.274;18.268;2023-12-20T04:15:48;21.88;;;14.48;;
33403;SDS011;19751;40.274;18.268;2023-12-20T04:18:16;20.15;;;13.48;;
33403;SDS011;19751;40.274;18.268;2023-12-20T04:20:41;21.30;;;13.60;;
33403;SDS011;19751;40.274;18.268;2023-12-20T04:23:06;20.92;;;13.63;;
33403;SDS011;19751;40.274;18.268;2023-12-20T04:25:32;25.48;;;14.38;;
33403;SDS011;19751;40.274;18.268;2023-12-20T04:27:57;21.10;;;14.30;;
33403;SDS011;19751;40.274;18.268;2023-12-20T04:30:23;20.23;;;13.85;;
33403;SDS011;19751;40.274;18.268;2023-12-20T04:32:49;23.65;;;13.77;;
33403;SDS011;19751;40.274;18.268;2023-12-20T04:35:14;21.05;;;13.05;;
33403;SDS011;19751;40.274;18.268;2023-12-20T04:37:40;21.00;;;13.27;;
33403;SDS011;19751;40.274;18.268;2023-12-20T04:40:05;23.38;;;14.07;;
33403;SDS011;19751;40.274;18.268;2023-12-20T04:42:32;18.45;;;12.57;;
33403;SDS011;19751;40.274;18.268;2023-12-20T04:44:58;21.08;;;12.77;;
33403;SDS011;19751;40.274;18.268;2023-12-20T04:47:23;19.55;;;12.45;;
33403;SDS011;19751;40.274;18.268;2023-12-20T04:49:49;20.95;;;13.38;;
33403;SDS011;19751;40.274;18.268;2023-12-20T04:52:14;19.67;;;12.82;;
33403;SDS011;19751;40.274;18.268;2023-12-20T04:54:40;21.15;;;12.68;;
33403;SDS011;19751;40.274;18.268;2023-12-20T04:57:05;17.13;;;11.27;;
33403;SDS011;19751;40.274;18.268;2023-12-20T04:59:31;18.63;;;12.15;;
33403;SDS011;19751;40.274;18.268;2023-12-20T05:01:56;19.38;;;10.85;;
33403;SDS011;19751;40.274;18.268;2023-12-20T05:04:22;16.02;;;9.88;;
33403;SDS011;19751;40.274;18.268;2023-12-20T05:06:48;14.88;;;9.50;;
33403;SDS011;19751;40.274;18.268;2023-12-20T05:09:15;15.40;;;9.93;;
33403;SDS011;19751;40.274;18.268;2023-12-20T05:11:40;21.27;;;12.90;;
33403;SDS011;19751;40.274;18.268;2023-12-20T05:14:06;16.80;;;11.32;;
33403;SDS011;19751;40.274;18.268;2023-12-20T05:16:32;19.48;;;12.20;;
33403;SDS011;19751;40.274;18.268;2023-12-20T05:18:57;22.02;;;12.60;;
33403;SDS011;19751;40.274;18.268;2023-12-20T05:21:25;21.15;;;12.57;;
33403;SDS011;19751;40.274;18.268;2023-12-20T05:23:51;18.98;;;11.55;;
33403;SDS011;19751;40.274;18.268;2023-12-20T05:26:17;18.40;;;11.68;;
33403;SDS011;19751;40.274;18.268;2023-12-20T05:28:42;19.58;;;12.77;;
33403;SDS011;19751;40.274;18.268;2023-12-20T05:31:08;23.27;;;12.73;;
33403;SDS011;19751;40.274;18.268;2023-12-20T05:33:34;17.63;;;11.32;;
33403;SDS011;19751;40.274;18.268;2023-12-20T05:35:59;18.13;;;11.93;;
33403;SDS011;19751;40.274;18.268;2023-12-20T05:38:25;18.75;;;10.85;;
33403;SDS011;19751;40.274;18.268;2023-12-20T05:40:51;21.35;;;12.48;;
33403;SDS011;19751;40.274;18.268;2023-12-20T05:43:16;20.67;;;12.50;;
33403;SDS011;19751;40.274;18.268;2023-12-20T05:45:42;18.88;;;11.60;;
33403;SDS011;19751;40.274;18.268;2023-12-20T05:48:07;22.75;;;11.85;;
33403;SDS011;19751;40.274;18.268;2023-12-20T05:50:33;20.98;;;12.18;;
33403;SDS011;19751;40.274;18.268;2023-12-20T05:53:00;24.58;;;13.70;;
33403;SDS011;19751;40.274;18.268;2023-12-20T05:55:25;25.60;;;14.32;;
33403;SDS011;19751;40.274;18.268;2023-12-20T05:57:51;26.63;;;14.57;;
33403;SDS011;19751;40.274;18.268;2023-12-20T06:00:16;23.42;;;13.10;;
33403;SDS011;19751;40.274;18.268;2023-12-20T06:02:42;21.63;;;13.48;;
33403;SDS011;19751;40.274;18.268;2023-12-20T06:05:08;18.75;;;11.20;;
33403;SDS011;19751;40.274;18.268;2023-12-20T06:07:34;18.45;;;11.23;;
33403;SDS011;19751;40.274;18.268;2023-12-20T06:10:00;23.38;;;12.80;;
33403;SDS011;19751;40.274;18.268;2023-12-20T06:12:25;20.17;;;11.93;;
33403;SDS011;19751;40.274;18.268;2023-12-20T06:14:52;32.22;;;15.95;;
33403;SDS011;19751;40.274;18.268;2023-12-20T06:17:18;31.15;;;17.33;;
33403;SDS011;19751;40.274;18.268;2023-12-20T06:19:43;33.72;;;17.48;;
33403;SDS011;19751;40.274;18.268;2023-12-20T06:22:10;34.22;;;17.95;;
33403;SDS011;19751;40.274;18.268;2023-12-20T06:24:36;38.63;;;19.23;;
33403;SDS011;19751;40.274;18.268;2023-12-20T06:27:01;36.33;;;19.02;;
33403;SDS011;19751;40.274;18.268;2023-12-20T06:29:27;41.45;;;21.27;;
33403;SDS011;19751;40.274;18.268;2023-12-20T06:31:53;42.47;;;19.55;;
33403;SDS011;19751;40.274;18.268;2023-12-20T06:34:18;38.55;;;19.08;;
33403;SDS011;19751;40.274;18.268;2023-12-20T06:36:44;41.25;;;20.75;;
33403;SDS011;19751;40.274;18.268;2023-12-20T06:39:09;42.70;;;21.02;;
33403;SDS011;19751;40.274;18.268;2023-12-20T06:41:37;45.88;;;22.45;;
33403;SDS011;19751;40.274;18.268;2023-12-20T06:44:03;48.63;;;21.67;;
33403;SDS011;19751;40.274;18.268;2023-12-20T06:46:29;53.83;;;22.33;;
33403;SDS011;19751;40.274;18.268;2023-12-20T06:48:54;56.38;;;24.67;;
33403;SDS011;19751;40.274;18.268;2023-12-20T06:51:20;46.58;;;23.17;;
33403;SDS011;19751;40.274;18.268;2023-12-20T06:53:45;49.28;;;24.02;;
33403;SDS011;19751;40.274;18.268;2023-12-20T06:56:11;45.80;;;21.83;;
33403;SDS011;19751;40.274;18.268;2023-12-20T06:58:37;50.67;;;21.92;;
33403;SDS011;19751;40.274;18.268;2023-12-20T07:01:03;38.97;;;19.20;;
33403;SDS011;19751;40.274;18.268;2023-12-20T07:03:29;31.05;;;12.52;;
33403;SDS011;19751;40.274;18.268;2023-12-20T07:05:55;22.23;;;11.40;;
33403;SDS011;19751;40.274;18.268;2023-12-20T07:08:20;21.90;;;10.77;;
33403;SDS011;19751;40.274;18.268;2023-12-20T07:10:46;18.80;;;8.48;;
33403;SDS011;19751;40.274;18.268;2023-12-20T07:13:11;19.48;;;10.80;;
33403;SDS011;19751;40.274;18.268;2023-12-20T07:15:37;18.73;;;9.63;;
33403;SDS011;19751;40.274;18.268;2023-12-20T07:18:03;21.70;;;10.18;;
33403;SDS011;19751;40.274;18.268;2023-12-20T07:20:29;19.75;;;10.05;;
33403;SDS011;19751;40.274;18.268;2023-12-20T07:22:55;17.92;;;10.07;;
33403;SDS011;19751;40.274;18.268;2023-12-20T07:25:20;18.33;;;10.35;;
33403;SDS011;19751;40.274;18.268;2023-12-20T07:27:46;22.15;;;10.77;;
33403;SDS011;19751;40.274;18.268;2023-12-20T07:30:11;25.13;;;11.63;;
33403;SDS011;19751;40.274;18.268;2023-12-20T07:32:37;19.05;;;10.23;;
33403;SDS011;19751;40.274;18.268;2023-12-20T07:35:03;20.33;;;10.95;;
33403;SDS011;19751;40.274;18.268;2023-12-20T07:37:28;19.27;;;10.38;;
33403;SDS011;19751;40.274;18.268;2023-12-20T07:39:54;24.73;;;12.70;;
33403;SDS011;19751;40.274;18.268;2023-12-20T07:42:19;21.67;;;11.27;;
33403;SDS011;19751;40.274;18.268;2023-12-20T07:44:47;29.00;;;14.15;;
33403;SDS011;19751;40.274;18.268;2023-12-20T07:47:12;22.30;;;11.88;;
33403;SDS011;19751;40.274;18.268;2023-12-20T07:49:40;26.23;;;12.52;;
33403;SDS011;19751;40.274;18.268;2023-12-20T07:52:06;22.63;;;10.52;;
33403;SDS011;19751;40.274;18.268;2023-12-20T07:54:33;20.27;;;12.23;;
33403;SDS011;19751;40.274;18.268;2023-12-20T07:56:58;20.85;;;12.02;;
33403;SDS011;19751;40.274;18.268;2023-12-20T07:59:24;23.08;;;11.05;;
33403;SDS011;19751;40.274;18.268;2023-12-20T08:01:49;19.95;;;11.63;;
33403;SDS011;19751;40.274;18.268;2023-12-20T08:04:15;13.98;;;9.75;;
33403;SDS011;19751;40.274;18.268;2023-12-20T08:06:40;13.57;;;9.13;;
33403;SDS011;19751;40.274;18.268;2023-12-20T08:09:06;12.48;;;8.93;;
33403;SDS011;19751;40.274;18.268;2023-12-20T08:11:31;14.57;;;9.73;;
33403;SDS011;19751;40.274;18.268;2023-12-20T08:13:57;12.57;;;8.88;;
33403;SDS011;19751;40.274;18.268;2023-12-20T08:16:23;12.98;;;9.38;;
33403;SDS011;19751;40.274;18.268;2023-12-20T08:18:48;15.13;;;9.82;;
33403;SDS011;19751;40.274;18.268;2023-12-20T08:21:14;16.05;;;9.75;;
33403;SDS011;19751;40.274;18.268;2023-12-20T08:23:39;16.98;;;11.40;;
33403;SDS011;19751;40.274;18.268;2023-12-20T08:26:05;14.55;;;11.30;;
33403;SDS011;19751;40.274;18.268;2023-12-20T08:28:32;19.92;;;12.88;;
33403;SDS011;19751;40.274;18.268;2023-12-20T08:30:58;20.88;;;12.50;;
33403;SDS011;19751;40.274;18.268;2023-12-20T08:33:23;16.88;;;10.95;;
33403;SDS011;19751;40.274;18.268;2023-12-20T08:35:49;21.95;;;13.57;;
33403;SDS011;19751;40.274;18.268;2023-12-20T08:38:14;21.67;;;14.40;;
33403;SDS011;19751;40.274;18.268;2023-12-20T08:40:41;19.42;;;14.23;;
33403;SDS011;19751;40.274;18.268;2023-12-20T08:43:07;23.13;;;16.52;;
33403;SDS011;19751;40.274;18.268;2023-12-20T08:45:33;19.30;;;16.15;;
33403;SDS011;19751;40.274;18.268;2023-12-20T08:47:58;21.95;;;15.02;;
33403;SDS011;19751;40.274;18.268;2023-12-20T08:50:24;19.13;;;15.18;;
33403;SDS011;19751;40.274;18.268;2023-12-20T08:52:50;27.42;;;17.88;;
33403;SDS011;19751;40.274;18.268;2023-12-20T08:55:16;21.27;;;15.98;;
33403;SDS011;19751;40.274;18.268;2023-12-20T08:57:43;21.35;;;13.35;;
33403;SDS011;19751;40.274;18.268;2023-12-20T09:00:09;18.02;;;13.95;;
33403;SDS011;19751;40.274;18.268;2023-12-20T09:02:35;17.27;;;12.13;;
33403;SDS011;19751;40.274;18.268;2023-12-20T09:05:01;17.83;;;12.15;;
33403;SDS011;19751;40.274;18.268;2023-12-20T09:07:27;21.92;;;13.93;;
33403;SDS011;19751;40.274;18.268;2023-12-20T09:09:55;22.15;;;14.32;;
33403;SDS011;19751;40.274;18.268;2023-12-20T09:12:21;18.58;;;14.50;;
33403;SDS011;19751;40.274;18.268;2023-12-20T09:14:47;15.55;;;13.32;;
33403;SDS011;19751;40.274;18.268;2023-12-20T09:17:14;16.77;;;12.02;;
33403;SDS011;19751;40.274;18.268;2023-12-20T09:19:41;14.50;;;10.98;;
33403;SDS011;19751;40.274;18.268;2023-12-20T09:22:07;11.60;;;8.95;;
33403;SDS011;19751;40.274;18.268;2023-12-20T09:24:32;14.80;;;9.55;;
33403;SDS011;19751;40.274;18.268;2023-12-20T09:26:58;11.70;;;7.88;;
33403;SDS011;19751;40.274;18.268;2023-12-20T09:29:23;12.50;;;8.48;;
33403;SDS011;19751;40.274;18.268;2023-12-20T09:31:50;17.45;;;9.60;;
33403;SDS011;19751;40.274;18.268;2023-12-20T09:34:15;15.65;;;9.88;;
33403;SDS011;19751;40.274;18.268;2023-12-20T09:36:42;16.17;;;8.50;;
33403;SDS011;19751;40.274;18.268;2023-12-20T09:39:15;10.95;;;6.57;;
33403;SDS011;19751;40.274;18.268;2023-12-20T09:42:07;12.43;;;7.50;;
33403;SDS011;19751;40.274;18.268;2023-12-20T09:44:33;7.85;;;5.20;;
33403;SDS011;19751;40.274;18.268;2023-12-20T09:47:02;6.50;;;4.13;;
33403;SDS011;19751;40.274;18.268;2023-12-20T09:49:29;6.65;;;4.05;;
33403;SDS011;19751;40.274;18.268;2023-12-20T09:51:55;5.28;;;3.08;;
33403;SDS011;19751;40.274;18.268;2023-12-20T09:54:22;6.03;;;3.53;;
33403;SDS011;19751;40.274;18.268;2023-12-20T09:56:48;7.05;;;4.18;;
33403;SDS011;19751;40.274;18.268;2023-12-20T09:59:14;4.05;;;3.65;;
33403;SDS011;19751;40.274;18.268;2023-12-20T10:01:40;3.25;;;2.95;;
33403;SDS011;19751;40.274;18.268;2023-12-20T10:04:06;3.95;;;3.03;;
33403;SDS011;19751;40.274;18.268;2023-12-20T10:06:35;4.97;;;3.70;;
33403;SDS011;19751;40.274;18.268;2023-12-20T10:09:01;7.15;;;5.07;;
33403;SDS011;19751;40.274;18.268;2023-12-20T10:11:27;18.10;;;11.25;;
33403;SDS011;19751;40.274;18.268;2023-12-20T10:13:58;11.65;;;7.55;;
33403;SDS011;19751;40.274;18.268;2023-12-20T10:18:53;8.18;;;5.22;;
33403;SDS011;19751;40.274;18.268;2023-12-20T10:21:19;12.30;;;6.82;;
33403;SDS011;19751;40.274;18.268;2023-12-20T10:23:48;8.50;;;4.72;;
33403;SDS011;19751;40.274;18.268;2023-12-20T10:26:23;7.30;;;4.75;;
33403;SDS011;19751;40.274;18.268;2023-12-20T10:28:50;7.60;;;4.05;;
33403;SDS011;19751;40.274;18.268;2023-12-20T10:33:57;5.43;;;3.15;;
33403;SDS011;19751;40.274;18.268;2023-12-20T10:36:27;3.75;;;3.25;;
33403;SDS011;19751;40.274;18.268;2023-12-20T10:38:54;8.15;;;3.40;;
33403;SDS011;19751;40.274;18.268;2023-12-20T10:41:31;7.72;;;3.22;;
33403;SDS011;19751;40.274;18.268;2023-12-20T10:44:01;6.13;;;3.80;;
33403;SDS011;19751;40.274;18.268;2023-12-20T10:46:34;6.38;;;3.97;;
33403;SDS011;19751;40.274;18.268;2023-12-20T10:49:01;6.45;;;3.78;;
33403;SDS011;19751;40.274;18.268;2023-12-20T10:51:27;7.47;;;4.13;;
33403;SDS011;19751;40.274;18.268;2023-12-20T10:53:55;5.20;;;3.80;;
33403;SDS011;19751;40.274;18.268;2023-12-20T10:56:21;5.45;;;4.10;;
33403;SDS011;19751;40.274;18.268;2023-12-20T10:58:51;7.72;;;3.97;;
33403;SDS011;19751;40.274;18.268;2023-12-20T11:01:17;5.35;;;4.20;;
33403;SDS011;19751;40.274;18.268;2023-12-20T11:03:51;8.38;;;4.40;;
33403;SDS011;19751;40.274;18.268;2023-12-20T11:17:10;9.57;;;5.80;;
33403;SDS011;19751;40.274;18.268;2023-12-20T11:22:26;43.80;;;23.80;;
33403;SDS011;19751;40.274;18.268;2023-12-20T11:24:58;33.92;;;21.17;;
33403;SDS011;19751;40.274;18.268;2023-12-20T11:27:34;22.73;;;13.45;;
33403;SDS011;19751;40.274;18.268;2023-12-20T11:30:00;23.27;;;13.85;;
33403;SDS011;19751;40.274;18.268;2023-12-20T11:32:31;20.52;;;13.30;;
33403;SDS011;19751;40.274;18.268;2023-12-20T11:35:00;16.83;;;12.43;;
33403;SDS011;19751;40.274;18.268;2023-12-20T11:37:41;14.95;;;10.00;;
33403;SDS011;19751;40.274;18.268;2023-12-20T11:40:16;12.55;;;7.90;;
33403;SDS011;19751;40.274;18.268;2023-12-20T11:42:43;11.52;;;6.95;;
33403;SDS011;19751;40.274;18.268;2023-12-20T11:45:14;11.43;;;8.52;;
33403;SDS011;19751;40.274;18.268;2023-12-20T11:47:46;26.42;;;15.88;;
33403;SDS011;19751;40.274;18.268;2023-12-20T11:50:12;19.85;;;12.77;;
33403;SDS011;19751;40.274;18.268;2023-12-20T11:52:38;10.82;;;9.02;;
33403;SDS011;19751;40.274;18.268;2023-12-20T11:55:03;14.82;;;10.93;;
33403;SDS011;19751;40.274;18.268;2023-12-20T11:57:30;9.77;;;8.80;;
33403;SDS011;19751;40.274;18.268;2023-12-20T11:59:56;18.10;;;16.25;;
33403;SDS011;19751;40.274;18.268;2023-12-20T12:02:22;29.65;;;22.05;;
33403;SDS011;19751;40.274;18.268;2023-12-20T12:04:49;15.55;;;13.18;;
33403;SDS011;19751;40.274;18.268;2023-12-20T12:07:17;7.57;;;6.13;;
33403;SDS011;19751;40.274;18.268;2023-12-20T12:09:43;6.63;;;5.25;;
33403;SDS011;19751;40.274;18.268;2023-12-20T12:12:09;7.15;;;5.68;;
33403;SDS011;19751;40.274;18.268;2023-12-20T12:14:37;6.70;;;5.72;;
33403;SDS011;19751;40.274;18.268;2023-12-20T12:17:03;6.35;;;4.85;;
33403;SDS011;19751;40.274;18.268;2023-12-20T12:19:29;8.90;;;5.25;;
33403;SDS011;19751;40.274;18.268;2023-12-20T12:22:10;6.88;;;4.53;;
33403;SDS011;19751;40.274;18.268;2023-12-20T12:27:08;8.65;;;5.72;;
33403;SDS011;19751;40.274;18.268;2023-12-20T12:29:34;10.27;;;7.13;;
33403;SDS011;19751;40.274;18.268;2023-12-20T12:32:00;8.35;;;6.55;;
33403;SDS011;19751;40.274;18.268;2023-12-20T12:34:29;8.55;;;7.00;;
33403;SDS011;19751;40.274;18.268;2023-12-20T12:36:56;8.07;;;6.55;;
33403;SDS011;19751;40.274;18.268;2023-12-20T12:39:23;15.18;;;10.60;;
33403;SDS011;19751;40.274;18.268;2023-12-20T12:41:52;30.58;;;19.02;;
33403;SDS011;19751;40.274;18.268;2023-12-20T12:44:18;24.30;;;17.40;;
33403;SDS011;19751;40.274;18.268;2023-12-20T12:46:48;20.52;;;13.80;;
33403;SDS011;19751;40.274;18.268;2023-12-20T12:49:16;17.38;;;14.32;;
33403;SDS011;19751;40.274;18.268;2023-12-20T12:51:42;10.60;;;9.50;;
33403;SDS011;19751;40.274;18.268;2023-12-20T12:54:08;27.17;;;24.40;;
33403;SDS011;19751;40.274;18.268;2023-12-20T12:56:34;26.05;;;21.92;;
33403;SDS011;19751;40.274;18.268;2023-12-20T12:59:01;23.50;;;17.70;;
33403;SDS011;19751;40.274;18.268;2023-12-20T13:01:27;18.73;;;15.38;;
33403;SDS011;19751;40.274;18.268;2023-12-20T13:03:52;15.73;;;11.55;;
33403;SDS011;19751;40.274;18.268;2023-12-20T13:06:18;12.45;;;8.60;;
33403;SDS011;19751;40.274;18.268;2023-12-20T13:08:44;8.77;;;7.72;;
33403;SDS011;19751;40.274;18.268;2023-12-20T13:11:10;12.90;;;8.80;;
33403;SDS011;19751;40.274;18.268;2023-12-20T13:13:35;20.13;;;13.02;;
33403;SDS011;19751;40.274;18.268;2023-12-20T13:16:01;15.75;;;11.73;;
33403;SDS011;19751;40.274;18.268;2023-12-20T13:18:27;16.30;;;10.45;;
33403;SDS011;19751;40.274;18.268;2023-12-20T13:20:52;13.45;;;9.13;;
33403;SDS011;19751;40.274;18.268;2023-12-20T13:23:18;25.10;;;16.00;;
33403;SDS011;19751;40.274;18.268;2023-12-20T13:25:43;17.45;;;11.38;;
33403;SDS011;19751;40.274;18.268;2023-12-20T13:28:10;12.75;;;8.02;;
33403;SDS011;19751;40.274;18.268;2023-12-20T13:30:36;8.57;;;6.03;;
33403;SDS011;19751;40.274;18.268;2023-12-20T13:33:02;9.40;;;6.03;;
33403;SDS011;19751;40.274;18.268;2023-12-20T13:35:27;10.98;;;5.88;;
33403;SDS011;19751;40.274;18.268;2023-12-20T13:37:53;11.80;;;8.52;;
33403;SDS011;19751;40.274;18.268;2023-12-20T13:40:18;11.25;;;7.18;;
33403;SDS011;19751;40.274;18.268;2023-12-20T13:42:44;17.77;;;12.05;;
33403;SDS011;19751;40.274;18.268;2023-12-20T13:45:10;24.55;;;15.05;;
33403;SDS011;19751;40.274;18.268;2023-12-20T13:47:36;34.97;;;17.95;;
33403;SDS011;19751;40.274;18.268;2023-12-20T13:50:02;28.85;;;17.45;;
33403;SDS011;19751;40.274;18.268;2023-12-20T13:52:29;37.88;;;22.65;;
33403;SDS011;19751;40.274;18.268;2023-12-20T13:54:54;20.15;;;11.85;;
33403;SDS011;19751;40.274;18.268;2023-12-20T13:57:20;11.48;;;6.93;;
33403;SDS011;19751;40.274;18.268;2023-12-20T13:59:45;12.32;;;8.75;;
33403;SDS011;19751;40.274;18.268;2023-12-20T14:02:11;7.95;;;6.15;;
33403;SDS011;19751;40.274;18.268;2023-12-20T14:04:36;10.32;;;8.65;;
33403;SDS011;19751;40.274;18.268;2023-12-20T14:07:04;10.77;;;5.97;;
33403;SDS011;19751;40.274;18.268;2023-12-20T14:09:30;11.57;;;6.32;;
33403;SDS011;19751;40.274;18.268;2023-12-20T14:11:55;7.85;;;5.53;;
33403;SDS011;19751;40.274;18.268;2023-12-20T14:14:21;7.90;;;5.38;;
33403;SDS011;19751;40.274;18.268;2023-12-20T14:16:46;7.20;;;5.80;;
33403;SDS011;19751;40.274;18.268;2023-12-20T14:19:12;7.47;;;5.97;;
33403;SDS011;19751;40.274;18.268;2023-12-20T14:21:37;11.68;;;8.30;;
33403;SDS011;19751;40.274;18.268;2023-12-20T14:24:03;27.15;;;17.73;;
33403;SDS011;19751;40.274;18.268;2023-12-20T14:26:29;55.65;;;35.33;;
33403;SDS011;19751;40.274;18.268;2023-12-20T14:28:55;75.50;;;46.35;;